sensor_id;sensor_type;location;lat;lon;timestamp;pressure;altitude;pressure_sealevel;temperature;humidity
33191;BME280;19554;42.652;23.364;2022-07-04T00:02:00;94884.00;;;22.91;50.63
33191;BME280;19554;42.652;23.364;2022-07-04T00:04:25;94880.69;;;22.82;50.90
33191;BME280;19554;42.652;23.364;2022-07-04T00:06:51;94889.16;;;22.97;50.71
33191;BME280;19554;42.652;23.364;2022-07-04T00:09:16;94876.84;;;23.03;50.06
33191;BME280;19554;42.652;23.364;2022-07-04T00:11:42;94869.81;;;22.82;49.48
33191;BME280;19554;42.652;23.364;2022-07-04T00:14:07;94869.81;;;22.82;49.30
33191;BME280;19554;42.652;23.364;2022-07-04T00:16:33;94876.69;;;22.76;49.21
33191;BME280;19554;42.652;23.364;2022-07-04T00:19:01;94891.59;;;23.02;49.17
33191;BME280;19554;42.652;23.364;2022-07-04T00:21:26;94881.44;;;22.99;48.84
33191;BME280;19554;42.652;23.364;2022-07-04T00:23:52;94885.69;;;22.80;49.42
33191;BME280;19554;42.652;23.364;2022-07-04T00:26:17;94891.00;;;22.73;49.02
33191;BME280;19554;42.652;23.364;2022-07-04T00:28:43;94808.53;;;22.30;49.01
33191;BME280;19554;42.652;23.364;2022-07-04T00:31:08;94876.34;;;22.78;49.05
33191;BME280;19554;42.652;23.364;2022-07-04T00:33:34;94870.53;;;22.79;48.89
33191;BME280;19554;42.652;23.364;2022-07-04T00:35:59;94866.22;;;22.78;49.02
33191;BME280;19554;42.652;23.364;2022-07-04T00:38:25;94818.19;;;22.47;49.03
33191;BME280;19554;42.652;23.364;2022-07-04T00:40:50;94867.31;;;22.74;48.68
33191;BME280;19554;42.652;23.364;2022-07-04T00:43:26;94861.38;;;22.68;49.02
33191;BME280;19554;42.652;23.364;2022-07-04T00:45:52;94855.75;;;22.41;49.48
33191;BME280;19554;42.652;23.364;2022-07-04T00:48:17;94842.38;;;22.52;49.00
33191;BME280;19554;42.652;23.364;2022-07-04T00:50:45;94842.44;;;22.17;49.62
33191;BME280;19554;42.652;23.364;2022-07-04T00:53:13;94856.63;;;22.45;49.28
33191;BME280;19554;42.652;23.364;2022-07-04T00:55:39;94874.03;;;22.41;49.73
33191;BME280;19554;42.652;23.364;2022-07-04T00:58:05;94860.25;;;21.98;50.51
33191;BME280;19554;42.652;23.364;2022-07-04T01:00:31;94870.84;;;22.04;50.49
33191;BME280;19554;42.652;23.364;2022-07-04T01:02:56;94871.72;;;22.08;50.00
33191;BME280;19554;42.652;23.364;2022-07-04T01:05:22;94871.00;;;22.11;49.76
33191;BME280;19554;42.652;23.364;2022-07-04T01:07:47;94827.31;;;21.84;49.47
33191;BME280;19554;42.652;23.364;2022-07-04T01:10:13;94861.03;;;22.15;49.43
33191;BME280;19554;42.652;23.364;2022-07-04T01:12:39;94795.53;;;21.69;49.29
33191;BME280;19554;42.652;23.364;2022-07-04T01:15:08;94854.69;;;22.11;49.31
33191;BME280;19554;42.652;23.364;2022-07-04T01:17:34;94852.97;;;22.03;49.52
33191;BME280;19554;42.652;23.364;2022-07-04T01:20:00;94836.34;;;21.88;49.75
33191;BME280;19554;42.652;23.364;2022-07-04T01:22:25;94859.81;;;21.96;49.82
33191;BME280;19554;42.652;23.364;2022-07-04T01:24:51;94862.22;;;21.82;50.14
33191;BME280;19554;42.652;23.364;2022-07-04T01:27:16;94857.91;;;21.81;49.72
33191;BME280;19554;42.652;23.364;2022-07-04T01:29:43;94837.06;;;21.85;49.70
33191;BME280;19554;42.652;23.364;2022-07-04T01:32:09;94852.25;;;22.06;49.54
33191;BME280;19554;42.652;23.364;2022-07-04T01:34:35;94855.06;;;22.09;49.18
33191;BME280;19554;42.652;23.364;2022-07-04T01:37:01;94786.06;;;21.63;49.29
33191;BME280;19554;42.652;23.364;2022-07-04T01:39:27;94851.97;;;22.11;49.15
33191;BME280;19554;42.652;23.364;2022-07-04T01:41:53;94855.13;;;22.13;48.49
33191;BME280;19554;42.652;23.364;2022-07-04T01:44:19;94860.53;;;21.93;48.69
33191;BME280;19554;42.652;23.364;2022-07-04T01:46:44;94801.50;;;21.59;48.99
33191;BME280;19554;42.652;23.364;2022-07-04T01:49:09;94848.41;;;21.91;48.85
33191;BME280;19554;42.652;23.364;2022-07-04T01:51:35;94852.28;;;21.90;48.39
33191;BME280;19554;42.652;23.364;2022-07-04T01:54:00;94850.00;;;21.92;47.50
33191;BME280;19554;42.652;23.364;2022-07-04T01:56:26;94866.97;;;22.05;46.99
33191;BME280;19554;42.652;23.364;2022-07-04T01:58:52;94860.13;;;22.11;46.68
33191;BME280;19554;42.652;23.364;2022-07-04T02:01:17;94849.53;;;22.06;46.47
33191;BME280;19554;42.652;23.364;2022-07-04T02:03:55;94866.97;;;22.05;47.37
33191;BME280;19554;42.652;23.364;2022-07-04T02:06:21;94869.97;;;21.99;47.29
33191;BME280;19554;42.652;23.364;2022-07-04T02:08:47;94848.69;;;21.86;47.27
33191;BME280;19554;42.652;23.364;2022-07-04T02:11:31;94870.13;;;22.07;46.87
33191;BME280;19554;42.652;23.364;2022-07-04T02:14:16;94788.53;;;21.68;46.99
33191;BME280;19554;42.652;23.364;2022-07-04T02:16:42;94847.22;;;21.88;46.92
33191;BME280;19554;42.652;23.364;2022-07-04T02:19:07;94868.13;;;22.04;47.11
33191;BME280;19554;42.652;23.364;2022-07-04T02:21:33;94855.69;;;22.03;46.83
33191;BME280;19554;42.652;23.364;2022-07-04T02:23:58;94875.91;;;22.21;46.67
33191;BME280;19554;42.652;23.364;2022-07-04T02:26:23;94875.13;;;22.20;46.81
33191;BME280;19554;42.652;23.364;2022-07-04T02:28:49;94874.34;;;22.20;46.83
33191;BME280;19554;42.652;23.364;2022-07-04T02:31:14;94880.50;;;22.17;47.07
33191;BME280;19554;42.652;23.364;2022-07-04T02:33:40;94880.84;;;21.99;47.69
33191;BME280;19554;42.652;23.364;2022-07-04T02:36:05;94852.03;;;21.95;47.64
33191;BME280;19554;42.652;23.364;2022-07-04T02:38:30;94787.31;;;21.49;47.49
33191;BME280;19554;42.652;23.364;2022-07-04T02:40:56;94868.41;;;21.98;47.80
33191;BME280;19554;42.652;23.364;2022-07-04T02:43:21;94868.66;;;21.93;48.13
33191;BME280;19554;42.652;23.364;2022-07-04T02:45:47;94827.88;;;21.58;47.65
33191;BME280;19554;42.652;23.364;2022-07-04T02:48:12;94821.38;;;21.63;46.75
33191;BME280;19554;42.652;23.364;2022-07-04T02:53:03;94886.72;;;22.01;46.19
33191;BME280;19554;42.652;23.364;2022-07-04T02:55:28;94887.59;;;22.06;45.57
33191;BME280;19554;42.652;23.364;2022-07-04T02:57:54;94886.38;;;22.19;45.68
33191;BME280;19554;42.652;23.364;2022-07-04T03:00:19;94881.66;;;22.35;46.28
33191;BME280;19554;42.652;23.364;2022-07-04T03:02:45;94885.56;;;22.54;46.63
33191;BME280;19554;42.652;23.364;2022-07-04T03:05:10;94884.69;;;22.69;46.28
33191;BME280;19554;42.652;23.364;2022-07-04T03:07:36;94877.84;;;22.75;46.08
33191;BME280;19554;42.652;23.364;2022-07-04T03:10:02;94890.16;;;22.88;46.09
33191;BME280;19554;42.652;23.364;2022-07-04T03:12:27;94893.88;;;23.00;45.95
33191;BME280;19554;42.652;23.364;2022-07-04T03:14:53;94885.44;;;23.05;45.57
33191;BME280;19554;42.652;23.364;2022-07-04T03:17:19;94903.78;;;23.08;45.00
33191;BME280;19554;42.652;23.364;2022-07-04T03:19:45;94859.94;;;22.74;44.97
33191;BME280;19554;42.652;23.364;2022-07-04T03:22:10;94893.44;;;23.17;44.73
33191;BME280;19554;42.652;23.364;2022-07-04T03:24:36;94888.44;;;23.19;44.58
33191;BME280;19554;42.652;23.364;2022-07-04T03:27:01;94889.97;;;23.39;45.09
33191;BME280;19554;42.652;23.364;2022-07-04T03:29:27;94901.88;;;23.54;45.57
33191;BME280;19554;42.652;23.364;2022-07-04T03:31:52;94889.75;;;23.71;45.24
33191;BME280;19554;42.652;23.364;2022-07-04T03:34:18;94885.25;;;23.82;45.65
33191;BME280;19554;42.652;23.364;2022-07-04T03:36:43;94890.13;;;23.96;45.96
33191;BME280;19554;42.652;23.364;2022-07-04T03:39:08;94891.56;;;24.13;45.21
33191;BME280;19554;42.652;23.364;2022-07-04T03:41:34;94857.22;;;24.08;44.44
33191;BME280;19554;42.652;23.364;2022-07-04T03:44:01;94824.25;;;24.17;44.00
33191;BME280;19554;42.652;23.364;2022-07-04T03:46:27;94890.56;;;24.81;43.71
33191;BME280;19554;42.652;23.364;2022-07-04T03:48:52;94893.56;;;25.03;43.29
33191;BME280;19554;42.652;23.364;2022-07-04T03:51:18;94889.09;;;25.21;43.10
33191;BME280;19554;42.652;23.364;2022-07-04T03:53:44;94884.97;;;25.38;43.49
33191;BME280;19554;42.652;23.364;2022-07-04T03:56:09;94882.00;;;25.54;43.63
33191;BME280;19554;42.652;23.364;2022-07-04T03:58:35;94883.69;;;25.69;43.40
33191;BME280;19554;42.652;23.364;2022-07-04T04:01:01;94887.81;;;25.90;43.55
33191;BME280;19554;42.652;23.364;2022-07-04T04:03:27;94880.81;;;25.92;43.61
33191;BME280;19554;42.652;23.364;2022-07-04T04:06:11;94886.38;;;26.10;43.40
33191;BME280;19554;42.652;23.364;2022-07-04T04:08:36;94884.59;;;25.81;44.12
33191;BME280;19554;42.652;23.364;2022-07-04T04:11:02;94881.31;;;25.64;45.13
33191;BME280;19554;42.652;23.364;2022-07-04T04:13:27;94885.19;;;25.63;44.85
33191;BME280;19554;42.652;23.364;2022-07-04T04:15:54;94880.84;;;25.55;45.07
33191;BME280;19554;42.652;23.364;2022-07-04T04:18:19;94880.06;;;25.55;45.04
33191;BME280;19554;42.652;23.364;2022-07-04T04:20:45;94856.19;;;25.48;44.15
33191;BME280;19554;42.652;23.364;2022-07-04T04:23:10;94884.63;;;25.84;41.73
33191;BME280;19554;42.652;23.364;2022-07-04T04:25:35;94889.91;;;25.66;41.33
33191;BME280;19554;42.652;23.364;2022-07-04T04:28:01;94806.34;;;24.83;40.44
33191;BME280;19554;42.652;23.364;2022-07-04T04:30:26;94899.72;;;25.26;40.84
33191;BME280;19554;42.652;23.364;2022-07-04T04:32:52;94900.59;;;25.38;39.90
33191;BME280;19554;42.652;23.364;2022-07-04T04:35:17;94903.69;;;25.36;40.27
33191;BME280;19554;42.652;23.364;2022-07-04T04:37:44;94907.59;;;25.35;40.19
33191;BME280;19554;42.652;23.364;2022-07-04T04:40:10;94904.56;;;25.44;40.56
33191;BME280;19554;42.652;23.364;2022-07-04T04:42:36;94893.53;;;25.37;40.70
33191;BME280;19554;42.652;23.364;2022-07-04T04:45:03;94898.69;;;25.42;40.96
33191;BME280;19554;42.652;23.364;2022-07-04T04:47:29;94906.88;;;25.42;40.75
33191;BME280;19554;42.652;23.364;2022-07-04T04:49:54;94899.69;;;25.67;40.19
33191;BME280;19554;42.652;23.364;2022-07-04T04:52:20;94901.22;;;25.61;41.14
33191;BME280;19554;42.652;23.364;2022-07-04T04:54:45;94899.69;;;26.12;40.01
33191;BME280;19554;42.652;23.364;2022-07-04T04:57:11;94899.97;;;26.51;38.52
33191;BME280;19554;42.652;23.364;2022-07-04T04:59:36;94902.47;;;26.78;38.56
33191;BME280;19554;42.652;23.364;2022-07-04T05:02:02;94908.84;;;27.07;38.66
33191;BME280;19554;42.652;23.364;2022-07-04T05:04:27;94901.88;;;27.31;38.08
33191;BME280;19554;42.652;23.364;2022-07-04T05:06:53;94903.50;;;27.53;38.22
33191;BME280;19554;42.652;23.364;2022-07-04T05:09:19;94900.38;;;27.55;38.52
33191;BME280;19554;42.652;23.364;2022-07-04T05:11:45;94906.06;;;27.03;39.66
33191;BME280;19554;42.652;23.364;2022-07-04T05:14:12;94897.09;;;27.06;38.87
33191;BME280;19554;42.652;23.364;2022-07-04T05:16:37;94822.69;;;26.97;38.39
33191;BME280;19554;42.652;23.364;2022-07-04T05:19:02;94887.88;;;27.82;37.68
33191;BME280;19554;42.652;23.364;2022-07-04T05:21:28;94893.38;;;28.18;36.70
33191;BME280;19554;42.652;23.364;2022-07-04T05:23:56;94849.03;;;28.23;36.18
33191;BME280;19554;42.652;23.364;2022-07-04T05:26:22;94890.94;;;28.67;35.31
33191;BME280;19554;42.652;23.364;2022-07-04T05:28:48;94885.47;;;28.67;34.99
33191;BME280;19554;42.652;23.364;2022-07-04T05:31:13;94894.97;;;27.91;35.19
33191;BME280;19554;42.652;23.364;2022-07-04T05:33:39;94892.16;;;27.58;36.39
33191;BME280;19554;42.652;23.364;2022-07-04T05:36:05;94897.25;;;27.49;36.92
33191;BME280;19554;42.652;23.364;2022-07-04T05:38:30;94891.75;;;27.42;37.08
33191;BME280;19554;42.652;23.364;2022-07-04T05:40:55;94889.44;;;27.73;36.81
33191;BME280;19554;42.652;23.364;2022-07-04T05:43:21;94892.59;;;27.85;36.11
33191;BME280;19554;42.652;23.364;2022-07-04T05:45:47;94900.00;;;27.63;35.29
33191;BME280;19554;42.652;23.364;2022-07-04T05:48:13;94845.53;;;27.44;35.34
33191;BME280;19554;42.652;23.364;2022-07-04T05:50:39;94894.13;;;27.69;36.14
33191;BME280;19554;42.652;23.364;2022-07-04T05:53:04;94836.94;;;27.56;35.38
33191;BME280;19554;42.652;23.364;2022-07-04T05:55:30;94897.69;;;28.01;34.20
33191;BME280;19554;42.652;23.364;2022-07-04T05:57:55;94898.06;;;27.85;35.15
33191;BME280;19554;42.652;23.364;2022-07-04T06:00:21;94835.75;;;27.64;34.43
33191;BME280;19554;42.652;23.364;2022-07-04T06:02:47;94901.97;;;28.24;33.91
33191;BME280;19554;42.652;23.364;2022-07-04T06:05:12;94904.34;;;28.22;33.99
33191;BME280;19554;42.652;23.364;2022-07-04T06:07:37;94907.47;;;28.17;33.86
33191;BME280;19554;42.652;23.364;2022-07-04T06:10:04;94911.38;;;28.30;33.32
33191;BME280;19554;42.652;23.364;2022-07-04T06:12:30;94907.09;;;28.29;33.73
33191;BME280;19554;42.652;23.364;2022-07-04T06:14:55;94905.13;;;28.26;33.42
33191;BME280;19554;42.652;23.364;2022-07-04T06:17:21;94858.44;;;28.29;33.43
33191;BME280;19554;42.652;23.364;2022-07-04T06:19:46;94858.81;;;28.56;33.18
33191;BME280;19554;42.652;23.364;2022-07-04T06:22:12;94897.19;;;28.74;33.05
33191;BME280;19554;42.652;23.364;2022-07-04T06:24:38;94896.44;;;28.67;33.33
33191;BME280;19554;42.652;23.364;2022-07-04T06:27:03;94889.78;;;28.57;33.37
33191;BME280;19554;42.652;23.364;2022-07-04T06:29:29;94894.09;;;28.54;33.71
33191;BME280;19554;42.652;23.364;2022-07-04T06:31:54;94895.72;;;28.41;33.99
33191;BME280;19554;42.652;23.364;2022-07-04T06:34:20;94888.56;;;28.76;33.90
33191;BME280;19554;42.652;23.364;2022-07-04T06:37:04;94891.66;;;28.99;32.57
33191;BME280;19554;42.652;23.364;2022-07-04T06:39:29;94889.28;;;29.01;32.38
33191;BME280;19554;42.652;23.364;2022-07-04T06:41:55;94894.78;;;28.91;33.38
33191;BME280;19554;42.652;23.364;2022-07-04T06:44:20;94872.16;;;28.62;33.53
33191;BME280;19554;42.652;23.364;2022-07-04T06:46:46;94890.78;;;29.17;32.73
33191;BME280;19554;42.652;23.364;2022-07-04T06:49:11;94895.31;;;29.48;32.39
33191;BME280;19554;42.652;23.364;2022-07-04T06:51:37;94894.31;;;29.84;31.50
33191;BME280;19554;42.652;23.364;2022-07-04T06:54:02;94889.38;;;30.13;30.80
33191;BME280;19554;42.652;23.364;2022-07-04T06:56:28;94878.94;;;30.38;30.73
33191;BME280;19554;42.652;23.364;2022-07-04T06:58:53;94888.53;;;30.61;30.01
33191;BME280;19554;42.652;23.364;2022-07-04T07:01:19;94882.66;;;30.59;29.96
33191;BME280;19554;42.652;23.364;2022-07-04T07:03:44;94881.00;;;30.65;29.96
33191;BME280;19554;42.652;23.364;2022-07-04T07:06:10;94874.16;;;30.42;29.99
33191;BME280;19554;42.652;23.364;2022-07-04T07:08:35;94877.28;;;29.99;30.39
33191;BME280;19554;42.652;23.364;2022-07-04T07:11:01;94865.91;;;29.97;30.98
33191;BME280;19554;42.652;23.364;2022-07-04T07:13:43;94870.56;;;30.04;31.08
33191;BME280;19554;42.652;23.364;2022-07-04T07:16:09;94872.78;;;30.24;30.63
33191;BME280;19554;42.652;23.364;2022-07-04T07:18:35;94819.09;;;29.97;30.09
33191;BME280;19554;42.652;23.364;2022-07-04T07:21:01;94860.03;;;30.40;30.66
33191;BME280;19554;42.652;23.364;2022-07-04T07:23:26;94872.00;;;30.61;30.51
33191;BME280;19554;42.652;23.364;2022-07-04T07:25:52;94820.31;;;30.72;30.01
33191;BME280;19554;42.652;23.364;2022-07-04T07:28:17;94860.50;;;31.34;29.86
33191;BME280;19554;42.652;23.364;2022-07-04T07:30:43;94858.63;;;31.55;29.56
33191;BME280;19554;42.652;23.364;2022-07-04T07:33:09;94855.03;;;31.58;29.96
33191;BME280;19554;42.652;23.364;2022-07-04T07:35:35;94858.53;;;31.62;29.95
33191;BME280;19554;42.652;23.364;2022-07-04T07:38:00;94866.47;;;31.29;29.58
33191;BME280;19554;42.652;23.364;2022-07-04T07:40:26;94855.94;;;31.21;30.41
33191;BME280;19554;42.652;23.364;2022-07-04T07:42:51;94852.66;;;30.68;31.42
33191;BME280;19554;42.652;23.364;2022-07-04T07:45:19;94854.94;;;30.73;31.16
33191;BME280;19554;42.652;23.364;2022-07-04T07:47:45;94854.06;;;30.83;31.06
33191;BME280;19554;42.652;23.364;2022-07-04T07:50:11;94852.84;;;31.19;30.80
33191;BME280;19554;42.652;23.364;2022-07-04T07:52:36;94852.50;;;31.44;31.02
33191;BME280;19554;42.652;23.364;2022-07-04T07:55:02;94810.47;;;31.05;31.16
33191;BME280;19554;42.652;23.364;2022-07-04T07:57:28;94857.63;;;31.11;30.56
33191;BME280;19554;42.652;23.364;2022-07-04T07:59:53;94845.97;;;31.00;30.90
33191;BME280;19554;42.652;23.364;2022-07-04T08:02:19;94790.63;;;30.53;30.63
33191;BME280;19554;42.652;23.364;2022-07-04T08:04:44;94849.59;;;30.59;31.63
33191;BME280;19554;42.652;23.364;2022-07-04T08:07:11;94845.50;;;30.74;31.54
33191;BME280;19554;42.652;23.364;2022-07-04T08:09:37;94847.72;;;30.86;31.04
33191;BME280;19554;42.652;23.364;2022-07-04T08:12:04;94853.22;;;30.86;30.99
33191;BME280;19554;42.652;23.364;2022-07-04T08:14:31;94849.84;;;31.06;30.97
33191;BME280;19554;42.652;23.364;2022-07-04T08:16:58;94846.16;;;30.85;30.91
33191;BME280;19554;42.652;23.364;2022-07-04T08:19:24;94841.47;;;30.82;31.42
33191;BME280;19554;42.652;23.364;2022-07-04T08:21:51;94852.06;;;30.87;31.36
33191;BME280;19554;42.652;23.364;2022-07-04T08:24:16;94848.44;;;30.94;31.56
33191;BME280;19554;42.652;23.364;2022-07-04T08:26:42;94844.34;;;31.06;31.96
33191;BME280;19554;42.652;23.364;2022-07-04T08:29:08;94786.84;;;30.70;31.88
33191;BME280;19554;42.652;23.364;2022-07-04T08:31:33;94837.06;;;31.19;31.58
33191;BME280;19554;42.652;23.364;2022-07-04T08:33:59;94821.66;;;30.95;31.66
33191;BME280;19554;42.652;23.364;2022-07-04T08:36:24;94835.47;;;31.22;31.44
33191;BME280;19554;42.652;23.364;2022-07-04T08:38:50;94828.78;;;31.19;32.09
33191;BME280;19554;42.652;23.364;2022-07-04T08:41:16;94825.81;;;31.06;32.10
33191;BME280;19554;42.652;23.364;2022-07-04T08:43:42;94837.25;;;31.05;33.12
33191;BME280;19554;42.652;23.364;2022-07-04T08:46:09;94829.25;;;31.14;33.18
33191;BME280;19554;42.652;23.364;2022-07-04T08:48:37;94813.97;;;30.75;33.46
33191;BME280;19554;42.652;23.364;2022-07-04T08:51:15;94836.88;;;31.03;33.27
33191;BME280;19554;42.652;23.364;2022-07-04T08:53:49;94835.41;;;31.25;33.20
33191;BME280;19554;42.652;23.364;2022-07-04T08:56:20;94826.19;;;31.08;33.60
33191;BME280;19554;42.652;23.364;2022-07-04T08:59:05;94830.28;;;31.24;33.42
33191;BME280;19554;42.652;23.364;2022-07-04T09:01:33;94780.00;;;30.85;33.60
33191;BME280;19554;42.652;23.364;2022-07-04T09:03:59;94820.22;;;31.41;33.20
33191;BME280;19554;42.652;23.364;2022-07-04T09:06:26;94813.41;;;31.22;33.60
33191;BME280;19554;42.652;23.364;2022-07-04T09:08:54;94826.22;;;31.05;33.95
33191;BME280;19554;42.652;23.364;2022-07-04T09:11:19;94830.91;;;31.08;33.65
33191;BME280;19554;42.652;23.364;2022-07-04T09:13:45;94793.25;;;30.98;33.38
33191;BME280;19554;42.652;23.364;2022-07-04T09:16:12;94802.50;;;30.80;33.96
33191;BME280;19554;42.652;23.364;2022-07-04T09:18:37;94811.44;;;30.91;33.48
33191;BME280;19554;42.652;23.364;2022-07-04T09:21:08;94829.47;;;30.28;34.97
33191;BME280;19554;42.652;23.364;2022-07-04T09:23:38;94820.50;;;30.20;35.09
33191;BME280;19554;42.652;23.364;2022-07-04T09:26:21;94808.44;;;30.03;35.68
33191;BME280;19554;42.652;23.364;2022-07-04T09:28:52;94815.06;;;30.51;35.70
33191;BME280;19554;42.652;23.364;2022-07-04T09:31:21;94794.25;;;30.05;35.83
33191;BME280;19554;42.652;23.364;2022-07-04T09:33:50;94827.53;;;30.59;34.68
33191;BME280;19554;42.652;23.364;2022-07-04T09:36:18;94821.06;;;30.76;35.13
33191;BME280;19554;42.652;23.364;2022-07-04T09:38:45;94818.66;;;30.82;34.11
33191;BME280;19554;42.652;23.364;2022-07-04T09:41:10;94780.34;;;30.57;34.39
33191;BME280;19554;42.652;23.364;2022-07-04T09:44:05;94779.88;;;30.62;33.54
33191;BME280;19554;42.652;23.364;2022-07-04T09:46:32;94803.75;;;30.76;34.79
33191;BME280;19554;42.652;23.364;2022-07-04T09:48:59;94791.19;;;30.71;33.71
33191;BME280;19554;42.652;23.364;2022-07-04T09:54:16;94803.59;;;31.17;33.77
33191;BME280;19554;42.652;23.364;2022-07-04T09:56:44;94763.19;;;30.76;34.97
33191;BME280;19554;42.652;23.364;2022-07-04T09:59:10;94778.06;;;31.13;34.42
33191;BME280;19554;42.652;23.364;2022-07-04T10:01:35;94796.84;;;31.49;33.93
33191;BME280;19554;42.652;23.364;2022-07-04T10:04:02;94795.53;;;31.57;33.76
33191;BME280;19554;42.652;23.364;2022-07-04T10:06:32;94804.16;;;31.59;33.01
33191;BME280;19554;42.652;23.364;2022-07-04T10:09:07;94805.06;;;31.25;32.90
33191;BME280;19554;42.652;23.364;2022-07-04T10:11:33;94797.22;;;31.51;32.96
33191;BME280;19554;42.652;23.364;2022-07-04T10:14:00;94750.44;;;31.44;32.18
33191;BME280;19554;42.652;23.364;2022-07-04T10:16:26;94791.59;;;31.81;32.22
33191;BME280;19554;42.652;23.364;2022-07-04T10:18:54;94790.28;;;31.90;32.05
33191;BME280;19554;42.652;23.364;2022-07-04T10:21:19;94783.69;;;32.07;32.35
33191;BME280;19554;42.652;23.364;2022-07-04T10:23:45;94795.38;;;32.15;31.46
33191;BME280;19554;42.652;23.364;2022-07-04T10:26:11;94793.75;;;32.17;31.10
33191;BME280;19554;42.652;23.364;2022-07-04T10:28:37;94729.56;;;31.90;31.57
33191;BME280;19554;42.652;23.364;2022-07-04T10:31:03;94792.88;;;32.44;31.10
33191;BME280;19554;42.652;23.364;2022-07-04T10:33:30;94769.34;;;32.36;31.01
33191;BME280;19554;42.652;23.364;2022-07-04T10:36:01;94781.28;;;32.09;31.65
33191;BME280;19554;42.652;23.364;2022-07-04T10:38:31;94778.69;;;32.22;32.25
33191;BME280;19554;42.652;23.364;2022-07-04T10:40:57;94780.28;;;32.19;31.65
33191;BME280;19554;42.652;23.364;2022-07-04T10:54:08;94773.16;;;31.24;32.60
33191;BME280;19554;42.652;23.364;2022-07-04T10:56:42;94769.84;;;31.36;32.11
33191;BME280;19554;42.652;23.364;2022-07-04T10:59:14;94755.06;;;31.23;32.82
33191;BME280;19554;42.652;23.364;2022-07-04T11:01:45;94676.06;;;30.86;32.53
33191;BME280;19554;42.652;23.364;2022-07-04T11:04:11;94769.00;;;31.12;33.01
33191;BME280;19554;42.652;23.364;2022-07-04T11:09:21;94758.19;;;30.98;33.13
33191;BME280;19554;42.652;23.364;2022-07-04T11:11:56;94771.66;;;30.92;33.06
33191;BME280;19554;42.652;23.364;2022-07-04T11:19:32;94759.00;;;31.22;33.88
33191;BME280;19554;42.652;23.364;2022-07-04T11:21:58;94754.13;;;31.33;32.69
33191;BME280;19554;42.652;23.364;2022-07-04T11:24:25;94775.84;;;31.01;33.23
33191;BME280;19554;42.652;23.364;2022-07-04T11:26:51;94761.25;;;30.73;33.18
33191;BME280;19554;42.652;23.364;2022-07-04T11:29:17;94749.97;;;30.95;33.39
33191;BME280;19554;42.652;23.364;2022-07-04T11:31:45;94739.66;;;30.99;33.03
33191;BME280;19554;42.652;23.364;2022-07-04T11:34:12;94750.38;;;31.20;33.06
33191;BME280;19554;42.652;23.364;2022-07-04T11:36:42;94747.88;;;31.29;33.63
33191;BME280;19554;42.652;23.364;2022-07-04T11:39:11;94742.28;;;31.36;33.34
33191;BME280;19554;42.652;23.364;2022-07-04T11:41:42;94740.47;;;31.50;33.28
33191;BME280;19554;42.652;23.364;2022-07-04T11:44:31;94737.00;;;31.46;32.83
33191;BME280;19554;42.652;23.364;2022-07-04T11:47:17;94736.63;;;31.44;33.78
33191;BME280;19554;42.652;23.364;2022-07-04T11:49:55;94743.09;;;31.33;33.24
33191;BME280;19554;42.652;23.364;2022-07-04T11:52:26;94727.34;;;31.30;33.45
33191;BME280;19554;42.652;23.364;2022-07-04T11:54:53;94701.91;;;30.96;33.61
33191;BME280;19554;42.652;23.364;2022-07-04T11:57:27;94733.94;;;31.13;33.46
33191;BME280;19554;42.652;23.364;2022-07-04T11:59:56;94711.69;;;31.24;33.78
33191;BME280;19554;42.652;23.364;2022-07-04T12:02:23;94713.25;;;31.25;33.36
33191;BME280;19554;42.652;23.364;2022-07-04T12:04:49;94712.53;;;31.21;33.69
33191;BME280;19554;42.652;23.364;2022-07-04T12:07:17;94703.16;;;30.91;33.74
33191;BME280;19554;42.652;23.364;2022-07-04T12:09:43;94657.56;;;30.56;34.11
33191;BME280;19554;42.652;23.364;2022-07-04T12:12:12;94682.97;;;30.98;33.79
33191;BME280;19554;42.652;23.364;2022-07-04T12:14:40;94690.03;;;30.99;34.17
33191;BME280;19554;42.652;23.364;2022-07-04T12:17:38;94698.78;;;30.93;34.98
33191;BME280;19554;42.652;23.364;2022-07-04T12:20:11;94693.94;;;31.01;34.78
33191;BME280;19554;42.652;23.364;2022-07-04T12:22:42;94713.75;;;30.92;35.20
33191;BME280;19554;42.652;23.364;2022-07-04T12:25:21;94699.13;;;30.68;35.44
33191;BME280;19554;42.652;23.364;2022-07-04T12:28:10;94691.72;;;30.92;34.81
33191;BME280;19554;42.652;23.364;2022-07-04T12:30:38;94690.75;;;31.03;34.85
33191;BME280;19554;42.652;23.364;2022-07-04T12:33:08;94688.38;;;31.05;34.59
33191;BME280;19554;42.652;23.364;2022-07-04T12:35:42;94688.56;;;30.90;34.90
33191;BME280;19554;42.652;23.364;2022-07-04T12:38:15;94692.81;;;30.99;34.63
33191;BME280;19554;42.652;23.364;2022-07-04T12:40:55;94684.38;;;31.09;34.50
33191;BME280;19554;42.652;23.364;2022-07-04T12:43:22;94680.13;;;31.05;34.95
33191;BME280;19554;42.652;23.364;2022-07-04T12:45:50;94639.25;;;30.69;35.17
33191;BME280;19554;42.652;23.364;2022-07-04T12:48:28;94645.50;;;30.73;35.01
33191;BME280;19554;42.652;23.364;2022-07-04T12:51:10;94699.28;;;31.12;34.76
33191;BME280;19554;42.652;23.364;2022-07-04T12:53:37;94665.94;;;31.03;35.72
33191;BME280;19554;42.652;23.364;2022-07-04T12:56:03;94693.16;;;31.01;35.24
33191;BME280;19554;42.652;23.364;2022-07-04T12:58:29;94686.81;;;31.04;34.75
33191;BME280;19554;42.652;23.364;2022-07-04T13:00:54;94688.56;;;30.94;34.93
33191;BME280;19554;42.652;23.364;2022-07-04T13:03:20;94680.59;;;30.69;35.34
33191;BME280;19554;42.652;23.364;2022-07-04T13:05:45;94681.69;;;30.79;35.04
33191;BME280;19554;42.652;23.364;2022-07-04T13:08:11;94666.75;;;30.76;34.96
33191;BME280;19554;42.652;23.364;2022-07-04T13:10:37;94664.25;;;30.85;35.13
33191;BME280;19554;42.652;23.364;2022-07-04T13:13:03;94659.00;;;30.95;34.99
33191;BME280;19554;42.652;23.364;2022-07-04T13:15:28;94658.28;;;31.14;35.28